sensor_id;sensor_type;location;lat;lon;timestamp;temperature;humidity
60727;DHT22;46577;49.004;12.120;2022-08-20T00:00:29;19.90;99.90
60727;DHT22;46577;49.004;12.120;2022-08-20T00:03:07;19.80;99.90
60727;DHT22;46577;49.004;12.120;2022-08-20T00:05:36;19.70;99.90
60727;DHT22;46577;49.004;12.120;2022-08-20T00:08:02;19.70;99.90
60727;DHT22;46577;49.004;12.120;2022-08-20T00:10:32;19.70;99.90
60727;DHT22;46577;49.004;12.120;2022-08-20T00:12:58;19.90;99.90
60727;DHT22;46577;49.004;12.120;2022-08-20T00:15:30;20.00;99.90
60727;DHT22;46577;49.004;12.120;2022-08-20T00:17:56;20.10;99.90
60727;DHT22;46577;49.004;12.120;2022-08-20T00:20:26;20.10;99.90
60727;DHT22;46577;49.004;12.120;2022-08-20T00:22:54;20.10;99.90
60727;DHT22;46577;49.004;12.120;2022-08-20T00:25:19;20.10;99.90
60727;DHT22;46577;49.004;12.120;2022-08-20T00:27:45;20.10;99.90
60727;DHT22;46577;49.004;12.120;2022-08-20T00:30:12;20.10;99.90
60727;DHT22;46577;49.004;12.120;2022-08-20T00:32:58;20.00;99.90
60727;DHT22;46577;49.004;12.120;2022-08-20T00:35:27;20.00;99.90
60727;DHT22;46577;49.004;12.120;2022-08-20T00:37:53;19.90;99.90
60727;DHT22;46577;49.004;12.120;2022-08-20T00:40:23;19.80;99.90
60727;DHT22;46577;49.004;12.120;2022-08-20T00:42:53;19.70;99.90
60727;DHT22;46577;49.004;12.120;2022-08-20T00:45:22;19.70;99.90
60727;DHT22;46577;49.004;12.120;2022-08-20T00:47:48;19.60;99.90
60727;DHT22;46577;49.004;12.120;2022-08-20T00:50:17;19.60;99.90
60727;DHT22;46577;49.004;12.120;2022-08-20T00:52:47;19.60;99.90
60727;DHT22;46577;49.004;12.120;2022-08-20T00:55:15;19.50;99.90
60727;DHT22;46577;49.004;12.120;2022-08-20T00:57:51;19.50;99.90
60727;DHT22;46577;49.004;12.120;2022-08-20T01:00:45;19.50;99.90
60727;DHT22;46577;49.004;12.120;2022-08-20T01:03:14;19.50;99.90
60727;DHT22;46577;49.004;12.120;2022-08-20T01:05:43;19.40;99.90
60727;DHT22;46577;49.004;12.120;2022-08-20T01:08:13;19.50;99.90
60727;DHT22;46577;49.004;12.120;2022-08-20T01:10:40;19.50;99.90
60727;DHT22;46577;49.004;12.120;2022-08-20T01:13:12;19.50;99.90
60727;DHT22;46577;49.004;12.120;2022-08-20T01:15:41;19.50;99.90
60727;DHT22;46577;49.004;12.120;2022-08-20T01:18:11;19.50;99.90
60727;DHT22;46577;49.004;12.120;2022-08-20T01:20:58;19.40;99.90
60727;DHT22;46577;49.004;12.120;2022-08-20T01:23:30;19.40;99.90
60727;DHT22;46577;49.004;12.120;2022-08-20T01:26:04;19.40;99.90
60727;DHT22;46577;49.004;12.120;2022-08-20T01:28:39;19.40;99.90
60727;DHT22;46577;49.004;12.120;2022-08-20T01:31:07;19.30;99.90
60727;DHT22;46577;49.004;12.120;2022-08-20T01:33:34;19.30;99.90
60727;DHT22;46577;49.004;12.120;2022-08-20T01:36:00;19.30;99.90
60727;DHT22;46577;49.004;12.120;2022-08-20T01:38:27;19.30;99.90
60727;DHT22;46577;49.004;12.120;2022-08-20T01:43:51;19.30;99.90
60727;DHT22;46577;49.004;12.120;2022-08-20T01:46:30;19.20;99.90
60727;DHT22;46577;49.004;12.120;2022-08-20T01:48:58;19.10;99.90
60727;DHT22;46577;49.004;12.120;2022-08-20T01:51:27;19.10;99.90
60727;DHT22;46577;49.004;12.120;2022-08-20T01:53:55;19.10;99.90
60727;DHT22;46577;49.004;12.120;2022-08-20T01:56:24;19.10;99.90
60727;DHT22;46577;49.004;12.120;2022-08-20T01:58:53;19.00;99.90
60727;DHT22;46577;49.004;12.120;2022-08-20T02:01:33;19.00;99.90
60727;DHT22;46577;49.004;12.120;2022-08-20T02:04:00;19.00;99.90
60727;DHT22;46577;49.004;12.120;2022-08-20T02:06:28;19.00;99.90
60727;DHT22;46577;49.004;12.120;2022-08-20T02:08:56;19.10;99.90
60727;DHT22;46577;49.004;12.120;2022-08-20T02:11:23;19.10;99.90
60727;DHT22;46577;49.004;12.120;2022-08-20T02:13:51;19.10;99.90
60727;DHT22;46577;49.004;12.120;2022-08-20T02:16:23;19.10;99.90
60727;DHT22;46577;49.004;12.120;2022-08-20T02:18:55;19.10;99.90
60727;DHT22;46577;49.004;12.120;2022-08-20T02:21:23;19.10;99.90
60727;DHT22;46577;49.004;12.120;2022-08-20T02:23:49;19.00;99.90
60727;DHT22;46577;49.004;12.120;2022-08-20T02:26:15;19.10;99.90
60727;DHT22;46577;49.004;12.120;2022-08-20T02:28:45;19.10;99.90
60727;DHT22;46577;49.004;12.120;2022-08-20T02:31:15;19.10;99.90
60727;DHT22;46577;49.004;12.120;2022-08-20T02:33:41;19.00;99.90
60727;DHT22;46577;49.004;12.120;2022-08-20T02:36:07;19.10;99.90
60727;DHT22;46577;49.004;12.120;2022-08-20T02:38:33;19.10;99.90
60727;DHT22;46577;49.004;12.120;2022-08-20T02:41:00;19.00;99.90
60727;DHT22;46577;49.004;12.120;2022-08-20T02:43:26;19.00;99.90
60727;DHT22;46577;49.004;12.120;2022-08-20T02:45:52;19.00;99.90
60727;DHT22;46577;49.004;12.120;2022-08-20T02:48:20;19.00;99.90
60727;DHT22;46577;49.004;12.120;2022-08-20T02:50:53;19.00;99.90
60727;DHT22;46577;49.004;12.120;2022-08-20T02:53:20;19.00;99.90
60727;DHT22;46577;49.004;12.120;2022-08-20T02:55:46;19.00;99.90
60727;DHT22;46577;49.004;12.120;2022-08-20T02:58:12;19.00;99.90
60727;DHT22;46577;49.004;12.120;2022-08-20T03:00:39;19.10;99.90
60727;DHT22;46577;49.004;12.120;2022-08-20T03:03:10;19.10;99.90
60727;DHT22;46577;49.004;12.120;2022-08-20T03:05:36;19.00;99.90
60727;DHT22;46577;49.004;12.120;2022-08-20T03:08:03;19.10;99.90
60727;DHT22;46577;49.004;12.120;2022-08-20T03:10:32;19.00;99.90
60727;DHT22;46577;49.004;12.120;2022-08-20T03:12:59;18.90;99.90
60727;DHT22;46577;49.004;12.120;2022-08-20T03:15:27;18.90;99.90
60727;DHT22;46577;49.004;12.120;2022-08-20T03:17:53;18.90;99.90
60727;DHT22;46577;49.004;12.120;2022-08-20T03:20:20;18.90;99.90
60727;DHT22;46577;49.004;12.120;2022-08-20T03:22:45;18.80;99.90
60727;DHT22;46577;49.004;12.120;2022-08-20T03:25:14;18.80;99.90
60727;DHT22;46577;49.004;12.120;2022-08-20T03:27:40;18.80;99.90
60727;DHT22;46577;49.004;12.120;2022-08-20T03:30:10;18.70;99.90
60727;DHT22;46577;49.004;12.120;2022-08-20T03:32:37;18.70;99.90
60727;DHT22;46577;49.004;12.120;2022-08-20T03:35:06;18.80;99.90
60727;DHT22;46577;49.004;12.120;2022-08-20T03:37:33;18.80;99.90
60727;DHT22;46577;49.004;12.120;2022-08-20T03:40:00;18.80;99.90
60727;DHT22;46577;49.004;12.120;2022-08-20T03:42:26;18.80;99.90
60727;DHT22;46577;49.004;12.120;2022-08-20T03:44:52;18.90;99.90
60727;DHT22;46577;49.004;12.120;2022-08-20T03:47:19;18.90;99.90
60727;DHT22;46577;49.004;12.120;2022-08-20T03:49:45;18.90;99.90
60727;DHT22;46577;49.004;12.120;2022-08-20T03:52:11;18.90;99.90
60727;DHT22;46577;49.004;12.120;2022-08-20T03:54:37;18.90;99.90
60727;DHT22;46577;49.004;12.120;2022-08-20T03:57:03;18.90;99.90
60727;DHT22;46577;49.004;12.120;2022-08-20T03:59:29;18.90;99.90
60727;DHT22;46577;49.004;12.120;2022-08-20T04:01:59;18.90;99.90
60727;DHT22;46577;49.004;12.120;2022-08-20T04:04:25;18.90;99.90
60727;DHT22;46577;49.004;12.120;2022-08-20T04:06:51;18.80;99.90
60727;DHT22;46577;49.004;12.120;2022-08-20T04:09:17;18.80;99.90
60727;DHT22;46577;49.004;12.120;2022-08-20T04:11:42;18.80;99.90
60727;DHT22;46577;49.004;12.120;2022-08-20T04:14:10;18.80;99.90
60727;DHT22;46577;49.004;12.120;2022-08-20T04:16:36;18.80;99.90
60727;DHT22;46577;49.004;12.120;2022-08-20T04:19:03;18.80;99.90
60727;DHT22;46577;49.004;12.120;2022-08-20T04:21:32;18.80;99.90
60727;DHT22;46577;49.004;12.120;2022-08-20T04:23:58;18.80;99.90
60727;DHT22;46577;49.004;12.120;2022-08-20T04:26:23;18.80;99.90
60727;DHT22;46577;49.004;12.120;2022-08-20T04:28:50;18.80;99.90
60727;DHT22;46577;49.004;12.120;2022-08-20T04:31:17;18.60;99.90
60727;DHT22;46577;49.004;12.120;2022-08-20T04:33:43;18.60;99.90
60727;DHT22;46577;49.004;12.120;2022-08-20T04:36:09;18.70;99.90
60727;DHT22;46577;49.004;12.120;2022-08-20T04:38:34;18.70;99.90
60727;DHT22;46577;49.004;12.120;2022-08-20T04:41:00;18.70;99.90
60727;DHT22;46577;49.004;12.120;2022-08-20T04:43:31;18.70;99.90
60727;DHT22;46577;49.004;12.120;2022-08-20T04:46:00;18.70;99.90
60727;DHT22;46577;49.004;12.120;2022-08-20T04:48:27;18.70;99.90
60727;DHT22;46577;49.004;12.120;2022-08-20T04:50:54;18.70;99.90
60727;DHT22;46577;49.004;12.120;2022-08-20T04:53:22;18.80;99.90
60727;DHT22;46577;49.004;12.120;2022-08-20T04:55:50;18.70;99.90
60727;DHT22;46577;49.004;12.120;2022-08-20T04:58:25;18.80;99.90
60727;DHT22;46577;49.004;12.120;2022-08-20T05:00:56;18.80;99.90
60727;DHT22;46577;49.004;12.120;2022-08-20T05:03:23;18.90;99.90
60727;DHT22;46577;49.004;12.120;2022-08-20T05:05:49;19.00;99.90
60727;DHT22;46577;49.004;12.120;2022-08-20T05:08:17;19.10;99.90
60727;DHT22;46577;49.004;12.120;2022-08-20T05:10:43;19.10;99.90
60727;DHT22;46577;49.004;12.120;2022-08-20T05:13:09;19.10;99.90
60727;DHT22;46577;49.004;12.120;2022-08-20T05:15:36;19.10;99.90
60727;DHT22;46577;49.004;12.120;2022-08-20T05:18:04;19.10;99.90
60727;DHT22;46577;49.004;12.120;2022-08-20T05:20:35;19.10;99.90
60727;DHT22;46577;49.004;12.120;2022-08-20T05:23:05;19.10;99.90
60727;DHT22;46577;49.004;12.120;2022-08-20T05:25:32;19.00;99.90
60727;DHT22;46577;49.004;12.120;2022-08-20T05:27:59;19.00;99.90
60727;DHT22;46577;49.004;12.120;2022-08-20T05:30:29;19.10;99.90
60727;DHT22;46577;49.004;12.120;2022-08-20T05:32:58;19.20;99.90
60727;DHT22;46577;49.004;12.120;2022-08-20T05:35:25;19.30;99.90
60727;DHT22;46577;49.004;12.120;2022-08-20T05:37:52;19.30;99.90
60727;DHT22;46577;49.004;12.120;2022-08-20T05:40:19;19.40;99.90
60727;DHT22;46577;49.004;12.120;2022-08-20T05:42:46;19.40;99.90
60727;DHT22;46577;49.004;12.120;2022-08-20T05:45:11;19.50;99.90
60727;DHT22;46577;49.004;12.120;2022-08-20T05:47:39;19.60;99.90
60727;DHT22;46577;49.004;12.120;2022-08-20T05:50:06;19.60;99.90
60727;DHT22;46577;49.004;12.120;2022-08-20T05:52:32;19.60;99.90
60727;DHT22;46577;49.004;12.120;2022-08-20T05:54:58;19.60;99.90
60727;DHT22;46577;49.004;12.120;2022-08-20T05:57:23;19.60;99.90
60727;DHT22;46577;49.004;12.120;2022-08-20T05:59:49;19.80;99.90
60727;DHT22;46577;49.004;12.120;2022-08-20T06:02:15;19.90;99.90
60727;DHT22;46577;49.004;12.120;2022-08-20T06:04:59;19.90;99.90
60727;DHT22;46577;49.004;12.120;2022-08-20T06:07:25;20.10;99.90
60727;DHT22;46577;49.004;12.120;2022-08-20T06:09:51;20.20;99.90
60727;DHT22;46577;49.004;12.120;2022-08-20T06:12:17;20.30;99.90
60727;DHT22;46577;49.004;12.120;2022-08-20T06:14:43;20.50;99.90
60727;DHT22;46577;49.004;12.120;2022-08-20T06:17:14;20.60;99.90
60727;DHT22;46577;49.004;12.120;2022-08-20T06:19:41;20.70;99.90
60727;DHT22;46577;49.004;12.120;2022-08-20T06:22:08;20.90;99.90
60727;DHT22;46577;49.004;12.120;2022-08-20T06:24:33;21.00;99.90
60727;DHT22;46577;49.004;12.120;2022-08-20T06:27:01;21.00;99.90
60727;DHT22;46577;49.004;12.120;2022-08-20T06:29:27;21.10;99.90
60727;DHT22;46577;49.004;12.120;2022-08-20T06:31:54;21.10;99.90
60727;DHT22;46577;49.004;12.120;2022-08-20T06:34:20;20.90;99.90
60727;DHT22;46577;49.004;12.120;2022-08-20T06:36:46;20.90;99.90
60727;DHT22;46577;49.004;12.120;2022-08-20T06:39:15;20.80;99.90
60727;DHT22;46577;49.004;12.120;2022-08-20T06:41:41;20.80;99.90
60727;DHT22;46577;49.004;12.120;2022-08-20T06:44:07;20.70;99.90
60727;DHT22;46577;49.004;12.120;2022-08-20T06:46:36;20.70;99.90
60727;DHT22;46577;49.004;12.120;2022-08-20T06:49:04;20.80;99.90
60727;DHT22;46577;49.004;12.120;2022-08-20T06:51:31;20.90;99.90
60727;DHT22;46577;49.004;12.120;2022-08-20T06:53:56;20.90;99.90
60727;DHT22;46577;49.004;12.120;2022-08-20T06:56:22;21.00;99.90
60727;DHT22;46577;49.004;12.120;2022-08-20T06:58:48;20.90;99.90
60727;DHT22;46577;49.004;12.120;2022-08-20T07:01:14;20.90;99.90
60727;DHT22;46577;49.004;12.120;2022-08-20T07:03:42;20.80;99.90
60727;DHT22;46577;49.004;12.120;2022-08-20T07:06:08;20.80;99.90
60727;DHT22;46577;49.004;12.120;2022-08-20T07:08:34;20.90;99.90
60727;DHT22;46577;49.004;12.120;2022-08-20T07:11:00;20.80;99.90
60727;DHT22;46577;49.004;12.120;2022-08-20T07:13:27;20.80;99.90
60727;DHT22;46577;49.004;12.120;2022-08-20T07:15:53;20.80;99.90
60727;DHT22;46577;49.004;12.120;2022-08-20T07:18:20;20.80;99.90
60727;DHT22;46577;49.004;12.120;2022-08-20T07:20:46;20.70;99.90
60727;DHT22;46577;49.004;12.120;2022-08-20T07:23:12;20.80;99.90
60727;DHT22;46577;49.004;12.120;2022-08-20T07:25:40;20.80;99.90
60727;DHT22;46577;49.004;12.120;2022-08-20T07:28:12;20.90;99.90
60727;DHT22;46577;49.004;12.120;2022-08-20T07:30:39;21.00;99.90
60727;DHT22;46577;49.004;12.120;2022-08-20T07:33:28;21.20;99.90
60727;DHT22;46577;49.004;12.120;2022-08-20T07:35:55;21.30;99.90
60727;DHT22;46577;49.004;12.120;2022-08-20T07:38:23;21.40;99.90
60727;DHT22;46577;49.004;12.120;2022-08-20T07:40:53;21.40;99.90
60727;DHT22;46577;49.004;12.120;2022-08-20T07:43:20;21.60;99.90
60727;DHT22;46577;49.004;12.120;2022-08-20T07:45:49;21.70;99.90
60727;DHT22;46577;49.004;12.120;2022-08-20T07:48:15;21.90;99.90
60727;DHT22;46577;49.004;12.120;2022-08-20T07:50:42;21.90;99.90
60727;DHT22;46577;49.004;12.120;2022-08-20T07:53:08;21.90;99.90
60727;DHT22;46577;49.004;12.120;2022-08-20T07:55:33;21.90;99.90
60727;DHT22;46577;49.004;12.120;2022-08-20T07:58:09;21.70;99.90
60727;DHT22;46577;49.004;12.120;2022-08-20T08:00:35;21.50;99.90
60727;DHT22;46577;49.004;12.120;2022-08-20T08:03:01;21.50;99.90
60727;DHT22;46577;49.004;12.120;2022-08-20T08:05:27;21.50;99.90
60727;DHT22;46577;49.004;12.120;2022-08-20T08:07:54;21.60;99.90
60727;DHT22;46577;49.004;12.120;2022-08-20T08:10:22;21.60;99.90
60727;DHT22;46577;49.004;12.120;2022-08-20T08:12:51;21.60;99.90
60727;DHT22;46577;49.004;12.120;2022-08-20T08:15:21;21.70;99.90
60727;DHT22;46577;49.004;12.120;2022-08-20T08:17:48;21.70;99.90
60727;DHT22;46577;49.004;12.120;2022-08-20T08:20:17;21.80;99.90
60727;DHT22;46577;49.004;12.120;2022-08-20T08:22:47;21.80;99.90
60727;DHT22;46577;49.004;12.120;2022-08-20T08:25:14;21.90;99.90
60727;DHT22;46577;49.004;12.120;2022-08-20T08:27:42;21.90;99.90
60727;DHT22;46577;49.004;12.120;2022-08-20T08:30:08;22.00;99.90
60727;DHT22;46577;49.004;12.120;2022-08-20T08:32:37;22.00;99.90
60727;DHT22;46577;49.004;12.120;2022-08-20T08:35:23;22.10;99.90
60727;DHT22;46577;49.004;12.120;2022-08-20T08:37:49;22.00;99.90
60727;DHT22;46577;49.004;12.120;2022-08-20T08:40:15;22.00;99.90
60727;DHT22;46577;49.004;12.120;2022-08-20T08:42:48;22.00;99.90
60727;DHT22;46577;49.004;12.120;2022-08-20T08:45:23;21.90;99.90
60727;DHT22;46577;49.004;12.120;2022-08-20T08:47:51;21.90;99.90
60727;DHT22;46577;49.004;12.120;2022-08-20T08:50:25;21.80;99.90
60727;DHT22;46577;49.004;12.120;2022-08-20T08:52:53;21.90;99.90
60727;DHT22;46577;49.004;12.120;2022-08-20T08:55:24;22.00;99.90
60727;DHT22;46577;49.004;12.120;2022-08-20T08:57:54;22.10;99.90
60727;DHT22;46577;49.004;12.120;2022-08-20T09:00:22;22.10;99.90
60727;DHT22;46577;49.004;12.120;2022-08-20T09:05:38;22.10;99.90
60727;DHT22;46577;49.004;12.120;2022-08-20T09:08:07;22.20;99.90
60727;DHT22;46577;49.004;12.120;2022-08-20T09:10:33;22.30;99.90
60727;DHT22;46577;49.004;12.120;2022-08-20T09:12:58;22.50;99.90
60727;DHT22;46577;49.004;12.120;2022-08-20T09:15:25;22.70;99.90
60727;DHT22;46577;49.004;12.120;2022-08-20T09:17:51;22.80;99.90
60727;DHT22;46577;49.004;12.120;2022-08-20T09:20:17;22.90;99.90
60727;DHT22;46577;49.004;12.120;2022-08-20T09:22:43;22.80;99.90
60727;DHT22;46577;49.004;12.120;2022-08-20T09:25:08;22.90;99.90
60727;DHT22;46577;49.004;12.120;2022-08-20T09:27:34;22.80;99.90
60727;DHT22;46577;49.004;12.120;2022-08-20T09:30:00;22.80;99.80
60727;DHT22;46577;49.004;12.120;2022-08-20T09:32:26;22.60;99.90
60727;DHT22;46577;49.004;12.120;2022-08-20T09:34:53;22.70;99.90
60727;DHT22;46577;49.004;12.120;2022-08-20T09:37:25;22.90;99.90
60727;DHT22;46577;49.004;12.120;2022-08-20T09:39:51;22.80;99.50
60727;DHT22;46577;49.004;12.120;2022-08-20T09:42:23;22.80;99.80
60727;DHT22;46577;49.004;12.120;2022-08-20T09:44:49;22.90;99.90
60727;DHT22;46577;49.004;12.120;2022-08-20T09:47:16;23.00;99.80
60727;DHT22;46577;49.004;12.120;2022-08-20T09:49:42;22.90;99.30
60727;DHT22;46577;49.004;12.120;2022-08-20T09:52:10;22.70;99.90
60727;DHT22;46577;49.004;12.120;2022-08-20T09:54:41;22.70;99.90
60727;DHT22;46577;49.004;12.120;2022-08-20T09:57:08;22.70;99.90
60727;DHT22;46577;49.004;12.120;2022-08-20T09:59:34;22.70;99.90
60727;DHT22;46577;49.004;12.120;2022-08-20T10:02:00;22.70;99.90
60727;DHT22;46577;49.004;12.120;2022-08-20T10:04:26;22.60;99.90
60727;DHT22;46577;49.004;12.120;2022-08-20T10:06:52;22.40;99.90
60727;DHT22;46577;49.004;12.120;2022-08-20T10:09:17;22.30;99.90
60727;DHT22;46577;49.004;12.120;2022-08-20T10:11:43;22.20;99.90
60727;DHT22;46577;49.004;12.120;2022-08-20T10:14:09;22.20;99.90
60727;DHT22;46577;49.004;12.120;2022-08-20T10:16:35;22.10;99.90
60727;DHT22;46577;49.004;12.120;2022-08-20T10:19:03;22.00;99.90
60727;DHT22;46577;49.004;12.120;2022-08-20T10:21:30;22.00;99.90
60727;DHT22;46577;49.004;12.120;2022-08-20T10:23:56;21.90;99.90
60727;DHT22;46577;49.004;12.120;2022-08-20T10:26:22;21.90;99.90
60727;DHT22;46577;49.004;12.120;2022-08-20T10:28:47;21.80;99.90
60727;DHT22;46577;49.004;12.120;2022-08-20T10:31:13;21.80;99.90
60727;DHT22;46577;49.004;12.120;2022-08-20T10:33:40;21.70;99.90
60727;DHT22;46577;49.004;12.120;2022-08-20T10:36:13;21.60;99.90
60727;DHT22;46577;49.004;12.120;2022-08-20T10:38:40;21.50;99.90
60727;DHT22;46577;49.004;12.120;2022-08-20T10:41:06;21.40;99.90
60727;DHT22;46577;49.004;12.120;2022-08-20T10:43:31;21.40;99.90
60727;DHT22;46577;49.004;12.120;2022-08-20T10:45:57;21.10;99.90
60727;DHT22;46577;49.004;12.120;2022-08-20T10:48:23;21.00;99.90
60727;DHT22;46577;49.004;12.120;2022-08-20T10:50:49;21.00;99.90
60727;DHT22;46577;49.004;12.120;2022-08-20T10:53:16;20.90;99.90
60727;DHT22;46577;49.004;12.120;2022-08-20T10:55:42;21.00;99.90
60727;DHT22;46577;49.004;12.120;2022-08-20T10:58:08;21.00;99.90
60727;DHT22;46577;49.004;12.120;2022-08-20T11:00:34;20.90;99.90
60727;DHT22;46577;49.004;12.120;2022-08-20T11:03:01;20.90;99.90
60727;DHT22;46577;49.004;12.120;2022-08-20T11:05:26;20.80;99.90
60727;DHT22;46577;49.004;12.120;2022-08-20T11:07:52;20.90;99.90
60727;DHT22;46577;49.004;12.120;2022-08-20T11:10:20;21.10;99.90
60727;DHT22;46577;49.004;12.120;2022-08-20T11:12:46;21.30;99.90
60727;DHT22;46577;49.004;12.120;2022-08-20T11:15:13;21.20;99.90
60727;DHT22;46577;49.004;12.120;2022-08-20T11:17:41;21.30;99.90
60727;DHT22;46577;49.004;12.120;2022-08-20T11:20:08;21.40;99.90
60727;DHT22;46577;49.004;12.120;2022-08-20T11:22:34;21.50;99.90
60727;DHT22;46577;49.004;12.120;2022-08-20T11:25:00;21.60;99.90
60727;DHT22;46577;49.004;12.120;2022-08-20T11:27:38;21.60;99.90
60727;DHT22;46577;49.004;12.120;2022-08-20T11:30:06;21.60;99.90
60727;DHT22;46577;49.004;12.120;2022-08-20T11:32:32;21.80;99.90
60727;DHT22;46577;49.004;12.120;2022-08-20T11:34:57;22.00;99.90
60727;DHT22;46577;49.004;12.120;2022-08-20T11:37:24;22.10;99.90
60727;DHT22;46577;49.004;12.120;2022-08-20T11:39:50;22.20;99.90
60727;DHT22;46577;49.004;12.120;2022-08-20T11:42:16;22.20;99.90
60727;DHT22;46577;49.004;12.120;2022-08-20T11:44:42;22.30;99.90
60727;DHT22;46577;49.004;12.120;2022-08-20T11:47:09;22.20;99.90
60727;DHT22;46577;49.004;12.120;2022-08-20T11:49:43;22.00;99.90
60727;DHT22;46577;49.004;12.120;2022-08-20T11:52:09;22.00;99.90
60727;DHT22;46577;49.004;12.120;2022-08-20T11:54:34;22.10;99.90
60727;DHT22;46577;49.004;12.120;2022-08-20T11:57:04;22.10;99.90
60727;DHT22;46577;49.004;12.120;2022-08-20T11:59:30;22.30;99.90
60727;DHT22;46577;49.004;12.120;2022-08-20T12:01:56;22.50;99.90
60727;DHT22;46577;49.004;12.120;2022-08-20T12:04:23;22.60;99.90
60727;DHT22;46577;49.004;12.120;2022-08-20T12:06:49;22.70;99.90
60727;DHT22;46577;49.004;12.120;2022-08-20T12:09:15;22.80;99.90
60727;DHT22;46577;49.004;12.120;2022-08-20T12:11:41;22.90;99.90
60727;DHT22;46577;49.004;12.120;2022-08-20T12:14:07;22.80;99.90
60727;DHT22;46577;49.004;12.120;2022-08-20T12:16:33;23.00;99.90
60727;DHT22;46577;49.004;12.120;2022-08-20T12:18:59;23.20;99.90
60727;DHT22;46577;49.004;12.120;2022-08-20T12:21:24;23.10;99.90
60727;DHT22;46577;49.004;12.120;2022-08-20T12:23:50;23.00;99.90
60727;DHT22;46577;49.004;12.120;2022-08-20T12:26:15;23.00;99.90
60727;DHT22;46577;49.004;12.120;2022-08-20T12:28:41;23.10;99.90
60727;DHT22;46577;49.004;12.120;2022-08-20T12:31:07;23.40;99.90
60727;DHT22;46577;49.004;12.120;2022-08-20T12:33:33;23.50;99.50
60727;DHT22;46577;49.004;12.120;2022-08-20T12:35:58;23.70;99.90
60727;DHT22;46577;49.004;12.120;2022-08-20T12:38:24;23.90;98.90
60727;DHT22;46577;49.004;12.120;2022-08-20T12:40:50;23.90;98.80
60727;DHT22;46577;49.004;12.120;2022-08-20T12:43:15;24.10;98.20
60727;DHT22;46577;49.004;12.120;2022-08-20T12:45:41;24.20;98.00
60727;DHT22;46577;49.004;12.120;2022-08-20T12:48:10;24.20;97.10
60727;DHT22;46577;49.004;12.120;2022-08-20T12:50:38;24.10;97.80
60727;DHT22;46577;49.004;12.120;2022-08-20T12:53:04;24.20;98.10
60727;DHT22;46577;49.004;12.120;2022-08-20T12:55:30;24.20;97.90
60727;DHT22;46577;49.004;12.120;2022-08-20T12:57:58;24.30;97.50
60727;DHT22;46577;49.004;12.120;2022-08-20T13:02:53;24.30;97.20
60727;DHT22;46577;49.004;12.120;2022-08-20T13:05:20;24.30;96.80
60727;DHT22;46577;49.004;12.120;2022-08-20T13:07:47;24.30;96.40
60727;DHT22;46577;49.004;12.120;2022-08-20T13:10:26;24.10;96.30
60727;DHT22;46577;49.004;12.120;2022-08-20T13:12:52;24.00;96.50
60727;DHT22;46577;49.004;12.120;2022-08-20T13:15:19;23.90;97.00
60727;DHT22;46577;49.004;12.120;2022-08-20T13:17:57;23.70;97.20
60727;DHT22;46577;49.004;12.120;2022-08-20T13:20:24;23.70;97.30
60727;DHT22;46577;49.004;12.120;2022-08-20T13:22:52;23.80;97.00
60727;DHT22;46577;49.004;12.120;2022-08-20T13:25:18;23.40;97.80
60727;DHT22;46577;49.004;12.120;2022-08-20T13:27:44;23.50;98.00
60727;DHT22;46577;49.004;12.120;2022-08-20T13:30:13;23.50;98.00
60727;DHT22;46577;49.004;12.120;2022-08-20T13:32:40;23.60;98.30
60727;DHT22;46577;49.004;12.120;2022-08-20T13:35:06;23.70;97.90
60727;DHT22;46577;49.004;12.120;2022-08-20T13:37:32;23.80;97.70
60727;DHT22;46577;49.004;12.120;2022-08-20T13:39:58;23.80;97.40
60727;DHT22;46577;49.004;12.120;2022-08-20T13:42:25;23.60;97.80
60727;DHT22;46577;49.004;12.120;2022-08-20T13:44:52;23.60;97.80
60727;DHT22;46577;49.004;12.120;2022-08-20T13:47:22;23.70;97.60
60727;DHT22;46577;49.004;12.120;2022-08-20T13:50:03;23.70;96.90
60727;DHT22;46577;49.004;12.120;2022-08-20T13:52:31;23.70;97.60
60727;DHT22;46577;49.004;12.120;2022-08-20T13:54:57;23.60;97.60
60727;DHT22;46577;49.004;12.120;2022-08-20T13:57:24;23.60;97.20
60727;DHT22;46577;49.004;12.120;2022-08-20T13:59:52;23.70;97.20
60727;DHT22;46577;49.004;12.120;2022-08-20T14:02:19;23.70;97.00
60727;DHT22;46577;49.004;12.120;2022-08-20T14:04:46;23.70;96.90
60727;DHT22;46577;49.004;12.120;2022-08-20T14:07:21;23.50;97.80
60727;DHT22;46577;49.004;12.120;2022-08-20T14:09:50;23.50;97.30
60727;DHT22;46577;49.004;12.120;2022-08-20T14:12:18;23.40;97.30
60727;DHT22;46577;49.004;12.120;2022-08-20T14:14:43;23.60;97.90
60727;DHT22;46577;49.004;12.120;2022-08-20T14:17:23;23.70;96.50
60727;DHT22;46577;49.004;12.120;2022-08-20T14:19:50;23.80;96.80
60727;DHT22;46577;49.004;12.120;2022-08-20T14:22:16;24.00;96.50
60727;DHT22;46577;49.004;12.120;2022-08-20T14:24:45;24.20;96.20
60727;DHT22;46577;49.004;12.120;2022-08-20T14:27:13;24.20;95.70
60727;DHT22;46577;49.004;12.120;2022-08-20T14:29:41;24.30;95.90
60727;DHT22;46577;49.004;12.120;2022-08-20T14:32:07;24.40;96.40
60727;DHT22;46577;49.004;12.120;2022-08-20T14:34:33;24.50;95.70
60727;DHT22;46577;49.004;12.120;2022-08-20T14:39:42;24.70;95.10
60727;DHT22;46577;49.004;12.120;2022-08-20T14:42:09;24.80;94.60
60727;DHT22;46577;49.004;12.120;2022-08-20T14:44:35;24.80;95.00
60727;DHT22;46577;49.004;12.120;2022-08-20T14:49:39;24.80;94.90
60727;DHT22;46577;49.004;12.120;2022-08-20T14:52:05;24.80;94.40
60727;DHT22;46577;49.004;12.120;2022-08-20T14:54:30;24.80;94.00
60727;DHT22;46577;49.004;12.120;2022-08-20T14:56:58;24.80;94.10
60727;DHT22;46577;49.004;12.120;2022-08-20T14:59:23;24.90;94.40
60727;DHT22;46577;49.004;12.120;2022-08-20T15:01:49;24.50;94.50
60727;DHT22;46577;49.004;12.120;2022-08-20T15:04:15;24.30;94.50
60727;DHT22;46577;49.004;12.120;2022-08-20T15:06:40;24.30;94.60
60727;DHT22;46577;49.004;12.120;2022-08-20T15:09:06;24.10;94.90
60727;DHT22;46577;49.004;12.120;2022-08-20T15:11:32;24.10;95.30
60727;DHT22;46577;49.004;12.120;2022-08-20T15:13:57;24.10;95.10
60727;DHT22;46577;49.004;12.120;2022-08-20T15:16:23;24.20;95.40
60727;DHT22;46577;49.004;12.120;2022-08-20T15:18:49;24.10;94.70
60727;DHT22;46577;49.004;12.120;2022-08-20T15:21:14;24.00;94.80
60727;DHT22;46577;49.004;12.120;2022-08-20T15:23:40;24.00;95.30
60727;DHT22;46577;49.004;12.120;2022-08-20T15:26:05;23.90;95.70
60727;DHT22;46577;49.004;12.120;2022-08-20T15:28:31;23.80;95.60
60727;DHT22;46577;49.004;12.120;2022-08-20T15:30:57;23.70;95.70